createdAt,value
2024-04-16T00:01:47.497Z,10.07
2024-04-16T00:04:14.492Z,12.70
2024-04-16T00:06:42.276Z,7.03
2024-04-16T00:09:09.618Z,7.32
2024-04-16T00:11:36.498Z,6.30
2024-04-16T00:14:03.376Z,6.55
2024-04-16T00:16:30.586Z,7.82
2024-04-16T00:18:57.505Z,13.70
2024-04-16T00:21:24.346Z,7.03
2024-04-16T00:23:51.261Z,11.40
2024-04-16T00:26:18.107Z,10.73
2024-04-16T00:28:44.995Z,7.75
2024-04-16T00:31:12.078Z,9.65
2024-04-16T00:33:38.970Z,7.28
2024-04-16T00:36:06.957Z,7.15
2024-04-16T00:38:34.781Z,9.00
2024-04-16T00:41:01.629Z,6.68
2024-04-16T00:43:28.672Z,6.75
2024-04-16T00:45:57.615Z,5.90
2024-04-16T00:48:26.060Z,8.00
2024-04-16T00:50:55.320Z,7.40
2024-04-16T00:53:23.025Z,5.82
2024-04-16T00:55:55.615Z,6.43
2024-04-16T00:58:23.011Z,5.53
2024-04-16T01:00:51.856Z,8.93
2024-04-16T01:03:18.864Z,6.35
2024-04-16T01:05:47.767Z,7.47
2024-04-16T01:08:14.646Z,7.85
2024-04-16T01:10:42.379Z,6.57
2024-04-16T01:13:09.877Z,6.20
2024-04-16T01:15:36.966Z,8.68
2024-04-16T01:18:07.485Z,5.63
2024-04-16T01:20:35.422Z,5.53
2024-04-16T01:23:02.297Z,8.63
2024-04-16T01:25:29.251Z,6.65
2024-04-16T01:27:56.207Z,7.07
2024-04-16T01:30:23.036Z,6.30
2024-04-16T01:32:51.886Z,7.30
2024-04-16T01:35:18.724Z,7.57
2024-04-16T01:37:45.538Z,7.10
2024-04-16T01:40:13.319Z,5.90
2024-04-16T01:42:41.148Z,5.75
2024-04-16T01:45:08.131Z,6.25
2024-04-16T01:47:34.956Z,5.97
2024-04-16T01:50:01.907Z,7.90
2024-04-16T01:52:28.865Z,5.20
2024-04-16T01:54:55.648Z,7.82
2024-04-16T01:57:22.560Z,8.77
2024-04-16T01:59:49.432Z,6.18
2024-04-16T02:02:16.291Z,5.72
2024-04-16T02:04:43.168Z,8.90
2024-04-16T02:07:10.163Z,8.85
2024-04-16T02:09:36.939Z,6.53
2024-04-16T02:12:04.170Z,6.70
2024-04-16T02:14:30.954Z,6.35
2024-04-16T02:16:58.892Z,6.03
2024-04-16T02:19:25.724Z,5.72
2024-04-16T02:21:52.653Z,5.97
2024-04-16T02:24:19.455Z,5.95
2024-04-16T02:26:46.299Z,6.10
2024-04-16T02:29:13.142Z,5.85
2024-04-16T02:31:40.071Z,6.35
2024-04-16T02:34:06.998Z,6.60
2024-04-16T02:36:33.862Z,7.32
2024-04-16T02:39:00.704Z,6.88
2024-04-16T02:41:27.573Z,6.82
2024-04-16T02:43:54.355Z,6.75
2024-04-16T02:46:21.349Z,7.35
2024-04-16T02:48:48.188Z,8.10
2024-04-16T02:51:15.684Z,7.30
2024-04-16T02:53:43.496Z,7.93
2024-04-16T02:56:10.273Z,10.27
2024-04-16T02:58:37.117Z,6.68
2024-04-16T03:01:07.713Z,6.68
2024-04-16T03:03:35.560Z,6.05
2024-04-16T03:06:02.749Z,11.82
2024-04-16T03:08:29.712Z,7.13
2024-04-16T03:11:00.700Z,6.22
2024-04-16T03:13:28.138Z,10.98
2024-04-16T03:15:55.308Z,7.82
2024-04-16T03:18:22.201Z,7.30
2024-04-16T03:20:49.362Z,6.28
2024-04-16T03:23:16.172Z,7.47
2024-04-16T03:25:44.302Z,9.85
2024-04-16T03:28:11.475Z,10.45
2024-04-16T03:30:38.358Z,8.38
2024-04-16T03:33:05.720Z,7.70
2024-04-16T03:35:32.532Z,8.07
2024-04-16T03:37:59.386Z,7.63
2024-04-16T03:40:26.216Z,7.93
2024-04-16T03:42:53.117Z,5.97
2024-04-16T03:45:20.022Z,6.32
2024-04-16T03:47:50.825Z,8.13
2024-04-16T03:50:17.878Z,7.72
2024-04-16T03:52:44.690Z,6.85
2024-04-16T03:55:11.559Z,11.98
2024-04-16T03:57:38.441Z,6.43
2024-04-16T04:00:24.466Z,6.57
2024-04-16T04:02:51.439Z,6.85
2024-04-16T04:05:19.207Z,10.52
2024-04-16T04:07:46.394Z,7.85
2024-04-16T04:10:13.304Z,9.50
2024-04-16T04:12:40.160Z,12.45
2024-04-16T04:15:07.095Z,9.10
2024-04-16T04:17:34.350Z,8.68
2024-04-16T04:20:01.971Z,9.05
2024-04-16T04:22:28.804Z,8.82
2024-04-16T04:24:58.122Z,6.88
2024-04-16T04:27:24.994Z,8.68
2024-04-16T04:29:51.860Z,7.00
2024-04-16T04:32:18.710Z,7.85
2024-04-16T04:34:45.523Z,16.20
2024-04-16T04:37:12.371Z,8.30
2024-04-16T04:39:39.394Z,7.28
2024-04-16T04:42:06.160Z,7.28
2024-04-16T04:44:32.977Z,9.90
2024-04-16T04:46:59.752Z,6.82
2024-04-16T04:49:42.945Z,7.70
2024-04-16T04:52:13.059Z,8.80
2024-04-16T04:54:49.834Z,10.02
2024-04-16T04:57:17.365Z,7.13
2024-04-16T04:59:51.633Z,12.63
2024-04-16T05:02:18.972Z,9.48
2024-04-16T05:04:49.569Z,6.25
2024-04-16T05:07:19.213Z,6.60
2024-04-16T05:09:46.345Z,8.20
2024-04-16T05:12:24.231Z,7.97
2024-04-16T05:14:50.969Z,11.85
2024-04-16T05:17:18.303Z,9.10
2024-04-16T05:19:45.329Z,10.52
2024-04-16T05:22:12.234Z,8.70
2024-04-16T05:24:39.009Z,7.88
2024-04-16T05:27:05.781Z,14.68
2024-04-16T05:29:32.795Z,7.20
2024-04-16T05:31:59.666Z,8.48
2024-04-16T05:34:26.567Z,7.22
2024-04-16T05:36:53.488Z,7.07
2024-04-16T05:39:20.244Z,9.20
2024-04-16T05:41:47.009Z,7.55
2024-04-16T05:44:13.816Z,7.65
2024-04-16T05:46:42.048Z,6.82
2024-04-16T05:49:09.434Z,7.05
2024-04-16T05:51:36.412Z,10.48
2024-04-16T05:54:07.741Z,8.55
2024-04-16T05:56:38.151Z,8.13
2024-04-16T05:59:04.958Z,7.55
2024-04-16T06:01:36.617Z,7.30
2024-04-16T06:04:03.585Z,12.00
2024-04-16T06:06:30.378Z,7.10
2024-04-16T06:08:57.125Z,6.60
2024-04-16T06:11:24.018Z,10.18
2024-04-16T06:13:53.032Z,10.48
2024-04-16T06:16:19.969Z,7.97
2024-04-16T06:18:46.793Z,10.07
2024-04-16T06:21:13.750Z,11.88
2024-04-16T06:23:40.526Z,8.73
2024-04-16T06:26:11.243Z,7.28
2024-04-16T06:28:38.200Z,9.00
2024-04-16T06:31:05.294Z,8.30
2024-04-16T06:33:34.554Z,6.65
2024-04-16T06:36:01.344Z,6.00
2024-04-16T06:38:28.262Z,6.20
2024-04-16T06:40:55.375Z,7.25
2024-04-16T06:43:23.287Z,6.93
2024-04-16T06:45:50.102Z,16.45
2024-04-16T06:48:18.032Z,6.45
2024-04-16T06:50:48.352Z,6.43
2024-04-16T06:53:15.469Z,6.22
2024-04-16T06:55:42.732Z,6.55
2024-04-16T06:58:09.767Z,6.57
2024-04-16T07:00:36.692Z,5.45
2024-04-16T07:03:04.030Z,6.03
2024-04-16T07:05:32.015Z,5.18
2024-04-16T07:07:59.785Z,6.05
2024-04-16T07:10:26.707Z,4.78
2024-04-16T07:12:53.512Z,5.30
2024-04-16T07:15:20.272Z,6.47
2024-04-16T07:17:47.198Z,5.63
2024-04-16T07:20:14.107Z,5.18
2024-04-16T07:22:41.097Z,5.38
2024-04-16T07:25:08.084Z,4.72
2024-04-16T07:27:35.900Z,4.72
2024-04-16T07:30:04.039Z,4.13
2024-04-16T07:32:32.077Z,4.60
2024-04-16T07:34:59.064Z,4.53
2024-04-16T07:37:26.178Z,4.40
2024-04-16T07:39:53.037Z,4.55
2024-04-16T07:42:21.899Z,4.28
2024-04-16T07:44:48.753Z,4.68
2024-04-16T07:47:15.897Z,5.20
2024-04-16T07:49:42.844Z,4.53
2024-04-16T07:52:11.813Z,4.80
2024-04-16T07:54:38.604Z,5.30
2024-04-16T07:57:05.694Z,5.60
2024-04-16T07:59:32.664Z,5.30
2024-04-16T08:01:59.606Z,6.03
2024-04-16T08:04:26.672Z,5.90
2024-04-16T08:06:53.851Z,6.82
2024-04-16T08:09:20.741Z,6.75
2024-04-16T08:11:47.639Z,7.68
2024-04-16T08:14:18.027Z,7.97
2024-04-16T08:16:45.943Z,8.65
2024-04-16T08:19:14.386Z,23.48
2024-04-16T08:21:41.439Z,13.25
2024-04-16T08:24:08.346Z,11.85
2024-04-16T08:26:35.214Z,11.70
2024-04-16T08:29:01.945Z,14.02
2024-04-16T08:31:32.721Z,19.30
2024-04-16T08:34:00.380Z,14.93
2024-04-16T08:36:27.485Z,15.25
2024-04-16T08:38:54.473Z,22.45
2024-04-16T08:41:21.905Z,15.82
2024-04-16T08:43:51.241Z,20.13
2024-04-16T08:46:19.695Z,20.70
2024-04-16T08:48:47.052Z,15.80
2024-04-16T08:51:14.962Z,15.95
2024-04-16T08:53:43.714Z,14.82
2024-04-16T08:56:11.028Z,14.48
2024-04-16T08:58:38.068Z,20.70
2024-04-16T09:01:06.523Z,14.18
2024-04-16T09:03:34.446Z,18.38
2024-04-16T09:06:01.509Z,16.83
2024-04-16T09:08:29.661Z,15.27
2024-04-16T09:10:57.529Z,21.27
2024-04-16T09:13:24.497Z,15.90
2024-04-16T09:15:51.395Z,15.88
2024-04-16T09:18:24.873Z,14.73
2024-04-16T09:20:51.922Z,13.02
2024-04-16T09:23:18.970Z,11.85
2024-04-16T09:25:46.855Z,14.30
2024-04-16T09:28:18.511Z,11.95
2024-04-16T09:30:58.758Z,13.98
2024-04-16T09:33:36.666Z,9.98
2024-04-16T09:36:12.522Z,12.20
2024-04-16T09:38:46.083Z,11.45
2024-04-16T09:41:15.290Z,6.80
2024-04-16T09:43:43.321Z,10.05
2024-04-16T09:46:11.271Z,12.15
2024-04-16T09:48:46.022Z,11.25
2024-04-16T09:51:15.247Z,7.28
2024-04-16T09:53:45.402Z,13.75
2024-04-16T09:56:14.423Z,14.88
2024-04-16T09:58:42.225Z,7.68
2024-04-16T10:01:10.347Z,8.23
2024-04-16T10:03:38.932Z,14.40
2024-04-16T10:06:06.876Z,9.45
2024-04-16T10:08:33.886Z,10.95
2024-04-16T10:11:05.779Z,19.55
2024-04-16T10:13:40.487Z,10.10
2024-04-16T10:16:19.367Z,10.95
2024-04-16T10:18:56.988Z,7.13
2024-04-16T10:21:28.482Z,8.20
2024-04-16T10:24:07.936Z,9.13
2024-04-16T10:26:41.168Z,12.63
2024-04-16T10:29:17.925Z,9.93
2024-04-16T10:31:51.356Z,10.07
2024-04-16T10:34:25.500Z,13.77
2024-04-16T10:36:53.106Z,12.63
2024-04-16T10:39:20.120Z,8.05
2024-04-16T10:41:54.104Z,5.72
2024-04-16T10:44:22.444Z,9.95
2024-04-16T10:46:53.255Z,5.00
2024-04-16T10:51:52.324Z,6.43
2024-04-16T10:54:19.855Z,5.75
2024-04-16T10:56:48.923Z,7.05
2024-04-16T10:59:17.532Z,5.55
2024-04-16T11:01:46.150Z,4.53
2024-04-16T11:04:18.799Z,14.45
2024-04-16T11:06:48.589Z,4.50
2024-04-16T11:09:16.825Z,5.05
2024-04-16T11:11:44.558Z,4.28
2024-04-16T11:14:12.441Z,4.57
2024-04-16T11:16:41.913Z,3.80
2024-04-16T11:19:09.181Z,4.03
2024-04-16T11:21:36.147Z,3.88
2024-04-16T11:24:04.020Z,4.28
2024-04-16T11:26:31.329Z,4.25
2024-04-16T11:28:58.279Z,4.10
2024-04-16T11:31:26.292Z,4.13
2024-04-16T11:33:53.721Z,4.72
2024-04-16T11:36:21.033Z,4.47
2024-04-16T11:38:49.379Z,5.45
2024-04-16T11:41:17.439Z,4.70
2024-04-16T11:43:46.254Z,5.03
2024-04-16T11:46:14.706Z,6.13
2024-04-16T11:48:44.922Z,5.30
2024-04-16T11:51:12.832Z,4.40
2024-04-16T11:53:40.238Z,4.20
2024-04-16T11:56:10.819Z,6.00
2024-04-16T11:58:40.562Z,5.10
2024-04-16T12:01:07.859Z,5.28
2024-04-16T12:03:35.838Z,5.40
2024-04-16T12:06:02.704Z,3.97
2024-04-16T12:08:29.565Z,4.20
2024-04-16T12:10:56.389Z,4.22
2024-04-16T12:13:23.323Z,4.40
2024-04-16T12:15:50.281Z,4.18
2024-04-16T12:18:17.192Z,3.83
2024-04-16T12:20:44.503Z,3.85
2024-04-16T12:23:11.358Z,3.80
2024-04-16T12:25:40.217Z,4.28
2024-04-16T12:28:07.302Z,4.22
2024-04-16T12:30:34.218Z,3.97
2024-04-16T12:33:10.799Z,4.50
2024-04-16T12:35:42.617Z,4.05
2024-04-16T12:38:09.476Z,4.60
2024-04-16T12:40:37.023Z,4.07
2024-04-16T12:43:05.639Z,4.68
2024-04-16T12:45:32.552Z,4.70
2024-04-16T12:47:59.577Z,4.55
2024-04-16T12:50:26.773Z,4.10
2024-04-16T12:52:53.831Z,5.00
2024-04-16T12:55:20.899Z,4.03
2024-04-16T12:57:47.872Z,4.90
2024-04-16T13:00:16.698Z,4.72
2024-04-16T13:02:43.607Z,4.30
2024-04-16T13:05:10.583Z,4.50
2024-04-16T13:07:38.337Z,4.10
2024-04-16T13:10:05.465Z,4.32
2024-04-16T13:12:32.378Z,4.40
2024-04-16T13:14:59.162Z,4.05
2024-04-16T13:17:26.483Z,4.15
2024-04-16T13:19:54.268Z,4.05
2024-04-16T13:22:21.589Z,4.20
2024-04-16T13:24:48.669Z,4.35
2024-04-16T13:27:15.592Z,4.18
2024-04-16T13:29:42.558Z,4.20
2024-04-16T13:32:09.620Z,4.50
2024-04-16T13:34:38.047Z,4.28
2024-04-16T13:37:05.178Z,4.50
2024-04-16T13:39:32.187Z,4.50
2024-04-16T13:41:59.094Z,4.07
2024-04-16T13:44:26.303Z,4.20
2024-04-16T13:46:53.378Z,4.50
2024-04-16T13:49:21.435Z,4.50
2024-04-16T13:51:48.400Z,4.22
2024-04-16T13:54:15.368Z,4.38
2024-04-16T13:56:42.503Z,4.32
2024-04-16T13:59:10.014Z,4.78
2024-04-16T14:01:36.879Z,4.20
2024-04-16T14:04:03.854Z,4.97
2024-04-16T14:06:30.661Z,4.70
2024-04-16T14:08:58.545Z,5.10
2024-04-16T14:11:26.083Z,5.10
2024-04-16T14:13:53.111Z,4.97
2024-04-16T14:16:20.068Z,4.70
2024-04-16T14:18:52.019Z,5.20
2024-04-16T14:21:19.340Z,4.40
2024-04-16T14:23:47.476Z,4.50
2024-04-16T14:26:16.909Z,4.95
2024-04-16T14:28:45.109Z,4.60
2024-04-16T14:31:14.189Z,4.63
2024-04-16T14:33:42.618Z,4.50
2024-04-16T14:36:09.825Z,5.25
2024-04-16T14:38:36.634Z,4.95
2024-04-16T14:41:03.604Z,4.50
2024-04-16T14:43:30.570Z,4.78
2024-04-16T14:45:57.540Z,4.93
2024-04-16T14:48:24.499Z,4.63
2024-04-16T14:50:52.448Z,5.75
2024-04-16T14:53:19.990Z,5.25
2024-04-16T14:55:50.738Z,5.00
2024-04-16T15:00:45.576Z,4.90
2024-04-16T15:03:12.992Z,5.10
2024-04-16T15:05:43.279Z,6.15
2024-04-16T15:08:10.180Z,5.50
2024-04-16T15:10:37.037Z,6.38
2024-04-16T15:13:08.167Z,11.02
2024-04-16T15:15:35.644Z,6.68
2024-04-16T15:18:02.986Z,9.10
2024-04-16T15:20:30.001Z,6.40
2024-04-16T15:22:58.471Z,5.00
2024-04-16T15:25:25.419Z,4.40
2024-04-16T15:27:52.446Z,4.38
2024-04-16T15:30:19.285Z,5.45
2024-04-16T15:32:46.203Z,5.20
2024-04-16T15:35:13.037Z,4.70
2024-04-16T15:37:40.217Z,4.75
2024-04-16T15:40:16.753Z,6.60
2024-04-16T15:42:47.441Z,5.15
2024-04-16T15:45:14.420Z,5.03
2024-04-16T15:47:41.496Z,4.38
2024-04-16T15:50:08.494Z,4.90
2024-04-16T15:52:35.377Z,5.10
2024-04-16T15:55:02.426Z,7.43
2024-04-16T15:57:29.316Z,5.78
2024-04-16T15:59:56.253Z,5.20
2024-04-16T16:02:23.421Z,5.28
2024-04-16T16:04:50.569Z,5.15
2024-04-16T16:07:18.508Z,5.35
2024-04-16T16:09:47.355Z,5.00
2024-04-16T16:12:14.123Z,5.15
2024-04-16T16:14:40.935Z,5.20
2024-04-16T16:17:07.841Z,5.00
2024-04-16T16:19:34.816Z,5.65
2024-04-16T16:22:01.884Z,5.95
2024-04-16T16:24:28.855Z,5.88
2024-04-16T16:26:55.898Z,5.05
2024-04-16T16:29:22.816Z,5.13
2024-04-16T16:31:49.806Z,5.32
2024-04-16T16:34:16.755Z,4.85
2024-04-16T16:36:43.739Z,5.10
2024-04-16T16:39:12.451Z,5.28
2024-04-16T16:41:41.876Z,5.45
2024-04-16T16:44:12.218Z,5.70
2024-04-16T16:46:39.150Z,7.80
2024-04-16T16:49:06.113Z,6.03
2024-04-16T16:51:34.301Z,6.00
2024-04-16T16:54:05.262Z,5.45
2024-04-16T16:56:32.055Z,5.78
2024-04-16T16:58:58.888Z,6.13
2024-04-16T17:01:27.653Z,5.25
2024-04-16T17:03:54.610Z,5.50
2024-04-16T17:06:21.479Z,5.00
2024-04-16T17:08:49.320Z,5.40
2024-04-16T17:11:16.328Z,5.00
2024-04-16T17:13:43.385Z,5.55
2024-04-16T17:16:10.305Z,6.10
2024-04-16T17:18:39.829Z,5.43
2024-04-16T17:21:07.792Z,5.22
2024-04-16T17:23:34.656Z,5.60
2024-04-16T17:26:01.798Z,5.28
2024-04-16T17:28:28.741Z,5.40
2024-04-16T17:30:56.285Z,6.05
2024-04-16T17:33:24.361Z,5.80
2024-04-16T17:35:51.437Z,6.05
2024-04-16T17:38:18.283Z,5.50
2024-04-16T17:40:45.629Z,7.60
2024-04-16T17:43:12.692Z,6.22
2024-04-16T17:45:39.682Z,5.60
2024-04-16T17:48:10.006Z,9.90
2024-04-16T17:50:37.150Z,5.38
2024-04-16T17:53:04.162Z,4.97
2024-04-16T17:55:31.446Z,5.18
2024-04-16T17:57:58.572Z,5.18
2024-04-16T18:00:26.388Z,4.90
2024-04-16T18:02:53.407Z,6.50
2024-04-16T18:05:20.408Z,7.32
2024-04-16T18:07:47.686Z,5.80
2024-04-16T18:10:14.699Z,5.55
2024-04-16T18:12:41.622Z,6.10
2024-04-16T18:15:10.235Z,5.63
2024-04-16T18:17:37.590Z,4.93
2024-04-16T18:20:04.803Z,5.25
2024-04-16T18:22:31.941Z,7.97
2024-04-16T18:25:01.396Z,5.97
2024-04-16T18:27:28.436Z,13.48
2024-04-16T18:29:55.278Z,6.43
2024-04-16T18:32:22.193Z,5.18
2024-04-16T18:34:49.172Z,5.35
2024-04-16T18:37:16.269Z,5.00
2024-04-16T18:39:43.068Z,4.90
2024-04-16T18:42:11.207Z,5.57
2024-04-16T18:44:38.162Z,4.90
2024-04-16T18:47:06.342Z,5.40
2024-04-16T18:49:33.478Z,5.63
2024-04-16T18:52:00.583Z,6.47
2024-04-16T18:54:27.951Z,5.10
2024-04-16T18:57:01.568Z,5.75
2024-04-16T18:59:28.393Z,5.40
2024-04-16T19:01:55.861Z,5.45
2024-04-16T19:04:22.804Z,5.70
2024-04-16T19:06:49.753Z,5.18
2024-04-16T19:09:16.691Z,6.07
2024-04-16T19:11:43.603Z,5.50
2024-04-16T19:14:10.785Z,5.38
2024-04-16T19:16:39.939Z,5.97
2024-04-16T19:19:07.254Z,5.57
2024-04-16T19:21:34.190Z,5.90
2024-04-16T19:24:01.038Z,8.88
2024-04-16T19:26:28.125Z,5.85
2024-04-16T19:28:55.096Z,5.43
2024-04-16T19:31:22.120Z,5.88
2024-04-16T19:33:53.113Z,5.75
2024-04-16T19:36:22.837Z,5.40
2024-04-16T19:38:50.599Z,25.92
2024-04-16T19:41:17.564Z,14.20
2024-04-16T19:43:48.069Z,6.22
2024-04-16T19:46:16.207Z,6.40
2024-04-16T19:48:43.834Z,5.55
2024-04-16T19:51:11.496Z,7.60
2024-04-16T19:53:39.416Z,6.45
2024-04-16T19:56:06.357Z,5.88
2024-04-16T19:58:38.130Z,6.70
2024-04-16T20:01:06.334Z,5.53
2024-04-16T20:03:36.630Z,10.32
2024-04-16T20:06:04.928Z,10.05
2024-04-16T20:08:31.894Z,7.90
2024-04-16T20:11:02.597Z,6.18
2024-04-16T20:13:30.273Z,5.88
2024-04-16T20:15:57.474Z,5.95
2024-04-16T20:18:24.472Z,5.50
2024-04-16T20:21:04.382Z,6.57
2024-04-16T20:23:32.166Z,5.80
2024-04-16T20:26:13.800Z,6.07
2024-04-16T20:28:41.919Z,6.38
2024-04-16T20:31:11.454Z,5.90
2024-04-16T20:33:38.712Z,6.40
2024-04-16T20:36:06.332Z,6.18
2024-04-16T20:38:33.556Z,9.30
2024-04-16T20:41:00.740Z,7.47
2024-04-16T20:43:31.378Z,6.82
2024-04-16T20:46:02.196Z,7.35
2024-04-16T20:48:29.426Z,7.55
2024-04-16T20:51:03.558Z,7.43
2024-04-16T20:53:32.734Z,11.10
2024-04-16T20:55:59.800Z,8.27
2024-04-16T20:58:27.070Z,8.00
2024-04-16T21:00:54.803Z,8.02
2024-04-16T21:03:22.100Z,10.27
2024-04-16T21:05:49.065Z,8.77
2024-04-16T21:08:16.042Z,7.97
2024-04-16T21:10:42.976Z,8.55
2024-04-16T21:13:10.103Z,11.43
2024-04-16T21:15:37.189Z,8.50
2024-04-16T21:18:04.363Z,9.07
2024-04-16T21:20:31.315Z,8.90
2024-04-16T21:23:00.492Z,8.73
2024-04-16T21:25:28.836Z,7.35
2024-04-16T21:27:57.881Z,8.32
2024-04-16T21:30:24.768Z,7.95
2024-04-16T21:32:51.767Z,8.93
2024-04-16T21:35:18.861Z,10.80
2024-04-16T21:37:45.844Z,8.50
2024-04-16T21:40:12.746Z,8.23
2024-04-16T21:42:39.694Z,8.98
2024-04-16T21:45:06.937Z,9.93
2024-04-16T21:47:34.906Z,8.35
2024-04-16T21:50:02.780Z,8.57
2024-04-16T21:52:29.581Z,8.77
2024-04-16T21:54:57.017Z,8.55
2024-04-16T21:57:23.864Z,9.90
2024-04-16T21:59:52.360Z,9.65
2024-04-16T22:02:19.287Z,12.80
2024-04-16T22:04:46.306Z,11.45
2024-04-16T22:07:13.454Z,10.88
2024-04-16T22:09:40.344Z,12.38
2024-04-16T22:12:08.538Z,15.70
2024-04-16T22:14:35.371Z,10.05
2024-04-16T22:17:02.220Z,9.10
2024-04-16T22:19:29.100Z,10.82
2024-04-16T22:21:57.966Z,12.45
2024-04-16T22:24:25.188Z,13.10
2024-04-16T22:26:52.055Z,8.35
2024-04-16T22:29:19.020Z,13.55
2024-04-16T22:31:48.149Z,12.40
2024-04-16T22:34:15.005Z,13.60
2024-04-16T22:36:41.796Z,12.05
2024-04-16T22:39:08.628Z,11.52
2024-04-16T22:41:35.487Z,11.30
2024-04-16T22:44:02.380Z,12.95
2024-04-16T22:46:30.638Z,13.23
2024-04-16T22:48:57.634Z,10.25
2024-04-16T22:51:25.448Z,8.98
2024-04-16T22:53:52.458Z,8.65
2024-04-16T22:56:21.537Z,11.45
2024-04-16T22:58:50.049Z,13.35
2024-04-16T23:01:16.998Z,11.25
2024-04-16T23:03:48.033Z,7.05
2024-04-16T23:06:14.966Z,14.85
2024-04-16T23:08:41.774Z,11.85
2024-04-16T23:11:08.741Z,17.92
2024-04-16T23:13:35.745Z,13.25
2024-04-16T23:16:03.709Z,14.50
2024-04-16T23:18:31.146Z,11.10
2024-04-16T23:20:58.044Z,14.50
2024-04-16T23:23:24.848Z,10.93
2024-04-16T23:25:51.827Z,9.50
2024-04-16T23:28:20.791Z,10.40
2024-04-16T23:30:47.497Z,15.15
2024-04-16T23:33:14.424Z,16.20
2024-04-16T23:35:41.311Z,14.80
2024-04-16T23:38:08.207Z,16.17
2024-04-16T23:40:35.635Z,14.80
2024-04-16T23:43:02.495Z,19.00
2024-04-16T23:45:29.366Z,15.18
2024-04-16T23:47:56.791Z,15.88
2024-04-16T23:50:23.804Z,12.57
2024-04-16T23:52:51.707Z,16.65
2024-04-16T23:55:19.614Z,12.35
2024-04-16T23:57:46.428Z,13.80
